Time;durP1;ratioP1;P1;durP2;ratioP2;P2;SDS_P1;SDS_P2;PMS_P1;PMS_P2;Temp;Humidity;BMP_temperature;BMP_pressure;BME280_temperature;BME280_humidity;BME280_pressure;Samples;Min_cycle;Max_cycle;Signal;HPM_P1;HPM_P2
2022/02/01 00:00:22;;;;;;;13.30;2.83;;;;;;;;;;5107252;27;20047;-73
2022/02/01 00:02:53;;;;;;;13.50;2.45;;;;;;;;;;5110024;27;20051;-73
2022/02/01 00:05:33;;;;;;;16.60;3.17;;;;;;;;;;5121891;27;20055;-73
2022/02/01 00:37:31;;;;;;;16.38;2.60;;;;;;;;;;5114396;27;20039;-72
2022/02/01 00:39:59;;;;;;;23.25;2.67;;;;;;;;;;5093600;27;20047;-73
2022/02/01 00:42:25;;;;;;;16.73;2.45;;;;;;;;;;5089901;27;20479;-75
2022/02/01 00:44:52;;;;;;;18.88;2.28;;;;;;;;;;5117812;27;20050;-71
2022/02/01 00:47:18;;;;;;;15.60;2.25;;;;;;;;;;5089822;27;20065;-72
2022/02/01 00:49:44;;;;;;;12.95;2.22;;;;;;;;;;5119037;27;20475;-73
2022/02/01 00:52:10;;;;;;;16.50;3.22;;;;;;;;;;5107175;27;20115;-72
2022/02/01 00:54:41;;;;;;;19.92;3.50;;;;;;;;;;5100140;28;20129;-72
2022/02/01 00:57:10;;;;;;;19.60;2.92;;;;;;;;;;5111574;28;20039;-72
2022/02/01 00:59:36;;;;;;;16.67;2.17;;;;;;;;;;5093639;28;20542;-72
2022/02/01 01:02:02;;;;;;;20.40;2.58;;;;;;;;;;5119297;28;20051;-72
2022/02/01 01:04:28;;;;;;;16.90;2.38;;;;;;;;;;5101264;28;20367;-72
2022/02/01 01:06:54;;;;;;;19.42;2.47;;;;;;;;;;5091001;27;20183;-72
2022/02/01 01:09:20;;;;;;;18.27;2.22;;;;;;;;;;5121644;28;20403;-72
2022/02/01 01:11:51;;;;;;;20.73;3.58;;;;;;;;;;5110680;28;20111;-72
2022/02/01 01:44:27;;;;;;;19.80;2.92;;;;;;;;;;5135863;27;20039;-72
2022/02/01 01:55:12;;;;;;;17.33;2.50;;;;;;;;;;5121247;27;20559;-72
2022/02/01 01:57:38;;;;;;;14.35;1.70;;;;;;;;;;5118327;27;20439;-72
2022/02/01 02:00:07;;;;;;;25.23;2.90;;;;;;;;;;5090196;27;20081;-72
2022/02/01 02:02:33;;;;;;;14.00;2.13;;;;;;;;;;5097297;27;20126;-72
2022/02/01 02:04:59;;;;;;;16.60;1.92;;;;;;;;;;5112166;27;20052;-72
2022/02/01 02:07:25;;;;;;;13.75;2.28;;;;;;;;;;5137465;27;20078;-72
2022/02/01 02:09:51;;;;;;;16.30;1.73;;;;;;;;;;5105951;27;20039;-74
2022/02/01 02:12:39;;;;;;;13.15;1.73;;;;;;;;;;5110678;27;20047;-72
2022/02/01 02:15:05;;;;;;;16.75;2.40;;;;;;;;;;5103305;27;20044;-72
2022/02/01 02:17:31;;;;;;;16.45;1.83;;;;;;;;;;5114911;27;20108;-74
2022/02/01 02:19:57;;;;;;;12.98;2.17;;;;;;;;;;5104619;28;20050;-73
2022/02/01 02:22:23;;;;;;;22.92;2.35;;;;;;;;;;5111084;27;20070;-72
2022/02/01 02:24:50;;;;;;;11.73;1.70;;;;;;;;;;5110251;27;20490;-72
2022/02/01 02:27:16;;;;;;;11.15;1.63;;;;;;;;;;5112998;27;20390;-72
2022/02/01 02:29:42;;;;;;;17.40;2.35;;;;;;;;;;5121655;27;20069;-72
2022/02/01 02:32:08;;;;;;;16.20;1.60;;;;;;;;;;5092755;27;20051;-72
2022/02/01 02:34:34;;;;;;;12.07;2.78;;;;;;;;;;5126471;27;20039;-72
2022/02/01 02:37:05;;;;;;;8.63;1.95;;;;;;;;;;5107706;27;20043;-72
2022/02/01 02:40:14;;;;;;;12.25;1.45;;;;;;;;;;5084331;27;20526;-72
2022/02/01 02:42:33;;;;;;;10.45;1.48;;;;;;;;;;5103018;27;20079;-74
2022/02/01 02:45:09;;;;;;;9.73;0.98;;;;;;;;;;5105622;27;20043;-73
2022/02/01 02:47:35;;;;;;;6.60;1.58;;;;;;;;;;5093274;27;20039;-73
2022/02/01 02:50:02;;;;;;;8.07;1.40;;;;;;;;;;5105215;27;20171;-73
2022/02/01 02:52:28;;;;;;;8.10;0.90;;;;;;;;;;5097216;27;20047;-73
2022/02/01 02:54:58;;;;;;;8.10;1.50;;;;;;;;;;5120791;27;20430;-76
2022/02/01 02:57:24;;;;;;;6.68;1.00;;;;;;;;;;5095373;27;20083;-73
2022/02/01 02:59:50;;;;;;;12.55;1.90;;;;;;;;;;5104645;27;20043;-72
2022/02/01 03:02:16;;;;;;;6.72;1.50;;;;;;;;;;5111795;27;20042;-73
2022/02/01 03:04:42;;;;;;;5.70;1.00;;;;;;;;;;5104801;27;20047;-72
2022/02/01 03:07:09;;;;;;;8.48;0.90;;;;;;;;;;5123608;27;20039;-72
2022/02/01 03:09:40;;;;;;;6.07;1.13;;;;;;;;;;5102378;27;20071;-72
2022/02/01 03:12:07;;;;;;;5.93;1.08;;;;;;;;;;5112281;27;20051;-72
2022/02/01 03:14:47;;;;;;;9.10;1.15;;;;;;;;;;5109141;27;20038;-72
2022/02/01 03:19:57;;;;;;;8.95;1.23;;;;;;;;;;5107832;27;20050;-72
2022/02/01 03:22:28;;;;;;;6.95;0.93;;;;;;;;;;5085853;27;20069;-73
2022/02/01 03:24:55;;;;;;;8.48;1.08;;;;;;;;;;5102524;28;20057;-71
2022/02/01 03:27:21;;;;;;;6.88;1.10;;;;;;;;;;5109934;27;20058;-72
2022/02/01 03:29:47;;;;;;;8.02;1.02;;;;;;;;;;5116753;27;20127;-71
2022/02/01 03:32:13;;;;;;;10.68;1.50;;;;;;;;;;5114979;27;20062;-72
2022/02/01 03:34:40;;;;;;;11.80;1.67;;;;;;;;;;5094968;27;20075;-72
2022/02/01 03:37:06;;;;;;;10.38;1.58;;;;;;;;;;5111459;27;20054;-72
2022/02/01 03:39:32;;;;;;;10.98;1.95;;;;;;;;;;5112307;27;20047;-71
2022/02/01 03:41:59;;;;;;;10.07;1.58;;;;;;;;;;5108173;27;20474;-73
2022/02/01 03:44:25;;;;;;;14.50;1.42;;;;;;;;;;5110084;27;20043;-72
2022/02/01 03:47:01;;;;;;;11.05;1.88;;;;;;;;;;5107117;27;20050;-72
2022/02/01 03:49:38;;;;;;;10.60;1.38;;;;;;;;;;5086873;28;20340;-71
2022/02/01 03:52:05;;;;;;;15.93;1.92;;;;;;;;;;5098576;27;20079;-72
2022/02/01 03:54:31;;;;;;;18.33;1.60;;;;;;;;;;5097678;27;20101;-72
2022/02/01 03:56:58;;;;;;;13.23;1.88;;;;;;;;;;5101885;27;20051;-72
2022/02/01 03:59:25;;;;;;;15.57;1.80;;;;;;;;;;5106395;27;20475;-72
2022/02/01 04:01:55;;;;;;;8.25;1.42;;;;;;;;;;5107326;27;20054;-72
2022/02/01 04:04:25;;;;;;;10.10;1.40;;;;;;;;;;5093893;27;20049;-72
2022/02/01 04:06:52;;;;;;;14.85;2.22;;;;;;;;;;5105661;27;20420;-72
2022/02/01 04:09:18;;;;;;;12.90;1.67;;;;;;;;;;5090791;27;20047;-72
2022/02/01 04:11:44;;;;;;;9.35;1.77;;;;;;;;;;5102327;28;20070;-72
2022/02/01 04:14:15;;;;;;;9.73;1.35;;;;;;;;;;5103541;27;20490;-72
2022/02/01 04:16:41;;;;;;;11.07;1.52;;;;;;;;;;5105123;28;20483;-72
2022/02/01 04:19:07;;;;;;;10.00;1.80;;;;;;;;;;5109294;27;20113;-73
2022/02/01 04:21:33;;;;;;;8.88;1.70;;;;;;;;;;5107393;28;20455;-72
2022/02/01 04:23:59;;;;;;;10.30;1.30;;;;;;;;;;5118232;27;20294;-71
2022/02/01 04:26:25;;;;;;;21.63;2.28;;;;;;;;;;5106516;27;20046;-71
2022/02/01 04:28:51;;;;;;;12.18;1.88;;;;;;;;;;5080227;27;20544;-71
2022/02/01 04:31:17;;;;;;;10.05;1.25;;;;;;;;;;5105239;27;20482;-72
2022/02/01 04:33:43;;;;;;;11.68;1.98;;;;;;;;;;5117798;27;20394;-72
2022/02/01 04:36:10;;;;;;;13.90;1.40;;;;;;;;;;5108905;28;20481;-72
2022/02/01 04:38:39;;;;;;;14.95;1.98;;;;;;;;;;5112938;27;20039;-71
2022/02/01 04:41:05;;;;;;;13.57;2.50;;;;;;;;;;5086786;27;20052;-73
2022/02/01 04:43:32;;;;;;;14.43;1.95;;;;;;;;;;5119456;27;20043;-72
2022/02/01 04:46:01;;;;;;;9.65;2.05;;;;;;;;;;5106459;27;20435;-72
2022/02/01 04:48:27;;;;;;;13.20;1.73;;;;;;;;;;5108986;27;20058;-72
2022/02/01 04:50:53;;;;;;;13.07;2.00;;;;;;;;;;5101941;27;20122;-72
2022/02/01 04:53:19;;;;;;;20.45;4.82;;;;;;;;;;5107746;28;20416;-72
2022/02/01 04:55:54;;;;;;;9.88;1.67;;;;;;;;;;5115121;28;20406;-72
2022/02/01 04:58:21;;;;;;;15.77;2.33;;;;;;;;;;5089524;28;20385;-72
2022/02/01 05:00:48;;;;;;;23.40;2.40;;;;;;;;;;5093204;28;20047;-72
2022/02/01 05:03:14;;;;;;;15.70;2.08;;;;;;;;;;5101498;28;20126;-72
2022/02/01 05:05:40;;;;;;;14.32;2.10;;;;;;;;;;5099702;28;20051;-72
2022/02/01 05:08:08;;;;;;;15.57;2.72;;;;;;;;;;5104403;28;20046;-71
2022/02/01 05:10:35;;;;;;;13.10;2.00;;;;;;;;;;5112713;28;20047;-72
2022/02/01 05:16:02;;;;;;;17.83;2.30;;;;;;;;;;5072738;27;20066;-72
2022/02/01 05:18:31;;;;;;;12.43;2.03;;;;;;;;;;5109379;27;20047;-72
2022/02/01 05:21:09;;;;;;;25.17;3.83;;;;;;;;;;5106752;27;20079;-72
2022/02/01 05:23:35;;;;;;;17.42;3.75;;;;;;;;;;5121038;27;20044;-72
2022/02/01 05:26:02;;;;;;;18.90;3.45;;;;;;;;;;5105066;27;20107;-72
2022/02/01 05:28:28;;;;;;;21.52;3.22;;;;;;;;;;5104345;27;20063;-72
2022/02/01 05:31:02;;;;;;;25.83;3.05;;;;;;;;;;5110293;27;20085;-71
2022/02/01 05:33:28;;;;;;;22.75;2.70;;;;;;;;;;5125466;27;20453;-71
2022/02/01 05:35:54;;;;;;;17.48;2.17;;;;;;;;;;5107903;27;20482;-72
2022/02/01 05:38:20;;;;;;;21.15;4.30;;;;;;;;;;5091120;27;20474;-72
2022/02/01 05:40:46;;;;;;;25.17;3.88;;;;;;;;;;5118432;27;20047;-71
2022/02/01 05:43:18;;;;;;;17.08;2.85;;;;;;;;;;5123357;27;20044;-72
2022/02/01 05:45:44;;;;;;;16.83;3.50;;;;;;;;;;5094167;28;20122;-71
2022/02/01 05:48:11;;;;;;;24.10;3.08;;;;;;;;;;5106962;27;20104;-71
2022/02/01 05:50:37;;;;;;;25.30;4.13;;;;;;;;;;5105369;28;20055;-72
2022/02/01 05:53:03;;;;;;;22.75;4.15;;;;;;;;;;5120634;27;20533;-71
2022/02/01 05:55:30;;;;;;;14.40;2.47;;;;;;;;;;5106563;27;20305;-72
2022/02/01 05:57:57;;;;;;;20.92;2.92;;;;;;;;;;5101015;27;20117;-72
2022/02/01 06:00:23;;;;;;;15.57;2.78;;;;;;;;;;5104419;27;20040;-71
2022/02/01 06:02:50;;;;;;;14.75;3.00;;;;;;;;;;5138449;27;20050;-72
2022/02/01 06:05:16;;;;;;;20.23;3.67;;;;;;;;;;5102392;27;20043;-72
2022/02/01 06:07:42;;;;;;;21.80;3.17;;;;;;;;;;5108275;27;20466;-70
2022/02/01 06:10:09;;;;;;;24.90;4.00;;;;;;;;;;5079830;27;20341;-72
2022/02/01 06:12:39;;;;;;;21.75;3.38;;;;;;;;;;5096821;28;20385;-72
2022/02/01 06:15:05;;;;;;;24.90;3.28;;;;;;;;;;5102344;27;20036;-73
2022/02/01 06:17:31;;;;;;;21.92;3.40;;;;;;;;;;5094696;27;20066;-72
2022/02/01 06:19:57;;;;;;;25.48;3.05;;;;;;;;;;5125931;27;20535;-71
2022/02/01 06:22:23;;;;;;;24.60;4.72;;;;;;;;;;5088168;27;20137;-71
2022/02/01 06:24:49;;;;;;;22.35;3.92;;;;;;;;;;5119629;27;20039;-71
2022/02/01 06:27:15;;;;;;;32.92;5.15;;;;;;;;;;5092498;27;20039;-72
2022/02/01 06:29:41;;;;;;;24.27;4.72;;;;;;;;;;5113289;27;20077;-71
2022/02/01 06:32:08;;;;;;;27.35;4.70;;;;;;;;;;5102300;27;20047;-72
2022/02/01 06:34:34;;;;;;;26.17;4.65;;;;;;;;;;5100222;27;20129;-72
2022/02/01 06:37:00;;;;;;;31.70;4.68;;;;;;;;;;5116213;27;20066;-72
2022/02/01 06:39:27;;;;;;;32.05;5.95;;;;;;;;;;5120281;27;20391;-73
2022/02/01 06:41:53;;;;;;;32.22;4.95;;;;;;;;;;5102037;27;20095;-73
2022/02/01 06:44:20;;;;;;;38.95;4.82;;;;;;;;;;5112477;27;20074;-72
2022/02/01 06:46:46;;;;;;;31.13;5.00;;;;;;;;;;5087392;27;20051;-71
2022/02/01 06:49:12;;;;;;;36.65;5.97;;;;;;;;;;5102729;27;20082;-75
2022/02/01 06:51:38;;;;;;;34.53;6.13;;;;;;;;;;5091913;27;20149;-71
2022/02/01 06:54:05;;;;;;;34.95;5.72;;;;;;;;;;5086436;28;20505;-74
2022/02/01 06:56:33;;;;;;;41.45;7.13;;;;;;;;;;5126753;27;20072;-74
2022/02/01 06:59:00;;;;;;;44.22;6.43;;;;;;;;;;5103644;27;20039;-72
2022/02/01 07:01:27;;;;;;;42.08;7.10;;;;;;;;;;5104028;27;20486;-72
2022/02/01 07:03:53;;;;;;;43.80;7.40;;;;;;;;;;5096904;27;20047;-77
2022/02/01 07:06:20;;;;;;;34.55;6.88;;;;;;;;;;5098951;27;20058;-72
2022/02/01 07:08:47;;;;;;;40.40;7.72;;;;;;;;;;5102944;27;20130;-72
2022/02/01 07:11:14;;;;;;;40.22;7.53;;;;;;;;;;5098510;27;20501;-72
2022/02/01 07:13:40;;;;;;;36.47;8.55;;;;;;;;;;5111739;27;20055;-72
2022/02/01 07:16:08;;;;;;;29.25;8.18;;;;;;;;;;5084518;27;20077;-73
2022/02/01 07:18:34;;;;;;;36.55;9.18;;;;;;;;;;5119551;27;20046;-72
2022/02/01 07:21:00;;;;;;;43.22;10.40;;;;;;;;;;5107892;27;20051;-73
2022/02/01 07:23:27;;;;;;;34.80;10.00;;;;;;;;;;5110973;27;20154;-69
2022/02/01 07:25:55;;;;;;;31.02;10.02;;;;;;;;;;5101354;28;20470;-71
2022/02/01 07:28:22;;;;;;;28.52;10.75;;;;;;;;;;5098026;27;20069;-72
2022/02/01 07:30:49;;;;;;;38.08;11.73;;;;;;;;;;5105833;27;20043;-72
2022/02/01 07:33:15;;;;;;;35.22;12.13;;;;;;;;;;5070717;28;20052;-72
2022/02/01 07:35:41;;;;;;;37.55;12.50;;;;;;;;;;5103613;27;20042;-72
2022/02/01 07:38:08;;;;;;;29.52;11.40;;;;;;;;;;5084352;27;20054;-73
2022/02/01 07:40:35;;;;;;;38.20;13.65;;;;;;;;;;5080802;27;20130;-72
2022/02/01 07:43:02;;;;;;;35.03;12.88;;;;;;;;;;5080360;27;20117;-72
2022/02/01 07:45:30;;;;;;;26.13;11.63;;;;;;;;;;5080108;27;20048;-72
2022/02/01 07:48:00;;;;;;;329.37;80.60;;;;;;;;;;5103378;27;20078;-76
2022/02/01 07:50:27;;;;;;;28.70;11.95;;;;;;;;;;5103626;27;20048;-72
2022/02/01 07:52:53;;;;;;;34.08;13.50;;;;;;;;;;5079354;28;20351;-72
2022/02/01 07:55:19;;;;;;;31.85;13.73;;;;;;;;;;5132286;27;20051;-72
2022/02/01 07:57:45;;;;;;;28.15;14.10;;;;;;;;;;5111531;27;20048;-72
2022/02/01 08:00:11;;;;;;;29.95;13.70;;;;;;;;;;5095200;27;20073;-72
2022/02/01 08:02:37;;;;;;;25.25;12.30;;;;;;;;;;5134581;27;20038;-73
2022/02/01 08:05:04;;;;;;;29.05;12.85;;;;;;;;;;5098464;27;20050;-72
2022/02/01 08:07:31;;;;;;;31.20;12.55;;;;;;;;;;5125181;27;20079;-73
2022/02/01 08:10:00;;;;;;;29.75;13.48;;;;;;;;;;5099821;27;20039;-74
2022/02/01 08:20:12;;;;;;;26.10;13.40;;;;;;;;;;5102831;27;20368;-73
2022/02/01 08:23:00;;;;;;;26.63;13.35;;;;;;;;;;5117484;27;20086;-72
2022/02/01 08:25:25;;;;;;;20.45;12.85;;;;;;;;;;5093428;27;20130;-74
2022/02/01 08:27:55;;;;;;;21.88;12.05;;;;;;;;;;5130138;27;20108;-72
2022/02/01 08:30:22;;;;;;;24.42;12.18;;;;;;;;;;5094925;28;20122;-72
2022/02/01 08:32:49;;;;;;;21.65;12.00;;;;;;;;;;5097642;28;20494;-72
2022/02/01 08:35:15;;;;;;;19.08;11.15;;;;;;;;;;5130236;27;20108;-73
2022/02/01 08:37:41;;;;;;;24.58;11.52;;;;;;;;;;5096143;28;20051;-73
2022/02/01 08:40:08;;;;;;;18.33;11.20;;;;;;;;;;5096847;28;20126;-74
2022/02/01 08:42:35;;;;;;;21.58;10.98;;;;;;;;;;5088123;28;20478;-72
2022/02/01 08:45:03;;;;;;;17.73;10.65;;;;;;;;;;5111375;27;20044;-73
2022/02/01 08:47:29;;;;;;;17.85;10.60;;;;;;;;;;5091615;27;20047;-69
2022/02/01 08:49:55;;;;;;;17.88;9.60;;;;;;;;;;5082420;28;20150;-71
2022/02/01 08:52:29;;;;;;;16.63;9.27;;;;;;;;;;5108779;27;20044;-72
2022/02/01 08:54:55;;;;;;;21.35;9.63;;;;;;;;;;5088720;27;20055;-72
2022/02/01 08:57:22;;;;;;;15.43;8.32;;;;;;;;;;5097631;27;20039;-72
2022/02/01 09:00:01;;;;;;;15.57;8.13;;;;;;;;;;5099670;28;20072;-72
2022/02/01 09:02:28;;;;;;;16.92;7.80;;;;;;;;;;5096262;27;20048;-71
2022/02/01 09:04:54;;;;;;;17.77;8.13;;;;;;;;;;5111560;27;20046;-72
2022/02/01 09:07:21;;;;;;;12.30;7.43;;;;;;;;;;5112193;28;20050;-72
2022/02/01 09:09:47;;;;;;;14.32;8.20;;;;;;;;;;5086154;28;20050;-71
2022/02/01 09:12:15;;;;;;;11.43;7.00;;;;;;;;;;5105070;28;20085;-73
2022/02/01 09:14:43;;;;;;;15.32;6.57;;;;;;;;;;5100845;28;20343;-73
2022/02/01 09:17:10;;;;;;;10.20;5.88;;;;;;;;;;5091602;28;20486;-72
2022/02/01 09:19:36;;;;;;;10.57;5.82;;;;;;;;;;5105396;28;20535;-72
2022/02/01 09:22:03;;;;;;;9.77;6.28;;;;;;;;;;5101317;28;20418;-74
2022/02/01 09:24:30;;;;;;;15.07;6.45;;;;;;;;;;5132406;27;20054;-73
2022/02/01 09:26:56;;;;;;;11.82;5.47;;;;;;;;;;5097935;28;20096;-73
2022/02/01 09:29:22;;;;;;;9.77;5.80;;;;;;;;;;5106021;28;20423;-73
2022/02/01 09:31:49;;;;;;;10.93;5.72;;;;;;;;;;5116474;28;20068;-73
2022/02/01 09:34:16;;;;;;;10.35;5.88;;;;;;;;;;5115482;28;20108;-73
2022/02/01 09:36:42;;;;;;;11.48;5.55;;;;;;;;;;5097528;28;20094;-73
2022/02/01 09:39:08;;;;;;;12.23;5.82;;;;;;;;;;5095398;28;20079;-73
2022/02/01 09:41:41;;;;;;;13.18;5.85;;;;;;;;;;5089500;28;20064;-73
2022/02/01 09:44:07;;;;;;;11.82;5.85;;;;;;;;;;5090875;28;20039;-73
2022/02/01 09:46:37;;;;;;;10.15;5.18;;;;;;;;;;5100309;28;20055;-75
2022/02/01 09:49:03;;;;;;;8.75;5.30;;;;;;;;;;5117174;28;20059;-73
2022/02/01 09:51:30;;;;;;;7.13;5.40;;;;;;;;;;5082756;28;20075;-73
2022/02/01 09:53:56;;;;;;;9.35;4.65;;;;;;;;;;5087991;28;20044;-73
2022/02/01 09:56:23;;;;;;;9.70;4.65;;;;;;;;;;5081904;28;20506;-73
2022/02/01 09:58:54;;;;;;;9.65;5.13;;;;;;;;;;5100549;28;20051;-72
2022/02/01 10:01:26;;;;;;;8.52;4.97;;;;;;;;;;5100923;27;20082;-74
2022/02/01 10:04:06;;;;;;;10.82;5.35;;;;;;;;;;5112730;27;20539;-73
2022/02/01 10:06:37;;;;;;;10.52;4.93;;;;;;;;;;5101277;27;20046;-73
2022/02/01 10:09:04;;;;;;;7.60;4.90;;;;;;;;;;5104956;27;20482;-72
2022/02/01 10:11:38;;;;;;;9.43;5.13;;;;;;;;;;5097609;28;20371;-72
2022/02/01 10:14:06;;;;;;;12.35;5.38;;;;;;;;;;5096731;28;20048;-73
2022/02/01 10:16:34;;;;;;;9.75;5.13;;;;;;;;;;5135437;27;20402;-72
2022/02/01 10:19:10;;;;;;;8.85;5.03;;;;;;;;;;5105089;27;20047;-72
2022/02/01 10:21:47;;;;;;;9.63;4.65;;;;;;;;;;5092606;28;20114;-72
2022/02/01 10:24:13;;;;;;;13.75;5.03;;;;;;;;;;5100253;27;20131;-73
2022/02/01 10:26:39;;;;;;;9.27;4.72;;;;;;;;;;5127604;27;20048;-73
2022/02/01 10:29:14;;;;;;;8.70;4.80;;;;;;;;;;5115979;27;20043;-72
2022/02/01 10:31:52;;;;;;;10.18;4.95;;;;;;;;;;5126675;27;20066;-72
2022/02/01 10:36:55;;;;;;;9.15;5.40;;;;;;;;;;5098478;27;20466;-71
2022/02/01 10:39:23;;;;;;;15.93;6.78;;;;;;;;;;5087472;27;20095;-71
2022/02/01 10:42:00;;;;;;;14.90;5.70;;;;;;;;;;5099299;27;20090;-72
2022/02/01 10:44:45;;;;;;;13.85;5.22;;;;;;;;;;5095241;27;20047;-72
2022/02/01 10:47:38;;;;;;;18.13;6.85;;;;;;;;;;5102183;27;20055;-70
2022/02/01 10:50:04;;;;;;;13.70;5.70;;;;;;;;;;5078752;27;20070;-71
2022/02/01 10:52:33;;;;;;;19.08;6.78;;;;;;;;;;5088776;27;20342;-76
2022/02/01 10:54:59;;;;;;;18.83;5.75;;;;;;;;;;5082040;27;20648;-75
2022/02/01 10:57:25;;;;;;;17.17;5.60;;;;;;;;;;5086719;27;20052;-75
2022/02/01 10:59:52;;;;;;;15.95;5.88;;;;;;;;;;5109001;27;20473;-72
2022/02/01 11:02:18;;;;;;;17.42;7.25;;;;;;;;;;5081095;27;20141;-73
2022/02/01 11:04:45;;;;;;;19.85;6.43;;;;;;;;;;5098749;27;20386;-72
2022/02/01 11:07:11;;;;;;;16.08;5.28;;;;;;;;;;5081967;27;20154;-72
2022/02/01 11:09:37;;;;;;;56.63;8.90;;;;;;;;;;5079297;27;20174;-72
2022/02/01 11:12:10;;;;;;;22.67;5.60;;;;;;;;;;5104181;27;20043;-74
2022/02/01 11:14:55;;;;;;;105.97;12.43;;;;;;;;;;5101047;27;20039;-73
2022/02/01 11:17:21;;;;;;;16.70;5.82;;;;;;;;;;5117158;27;20058;-73
2022/02/01 11:19:50;;;;;;;19.38;5.43;;;;;;;;;;5086582;27;20054;-74
2022/02/01 11:22:25;;;;;;;17.70;6.38;;;;;;;;;;5104584;27;20052;-73
2022/02/01 11:24:59;;;;;;;23.75;6.60;;;;;;;;;;5100715;27;20051;-73
2022/02/01 11:27:31;;;;;;;;;;;;;;;;;;5108044;27;20103;-73
2022/02/01 11:30:11;;;;;;;18.42;6.18;;;;;;;;;;5098285;27;19919;-73
2022/02/01 11:32:38;;;;;;;20.08;6.30;;;;;;;;;;5088878;27;20035;-73
2022/02/01 11:35:09;;;;;;;19.05;5.63;;;;;;;;;;5096570;27;21782;-72
2022/02/01 11:37:45;;;;;;;15.20;5.63;;;;;;;;;;5106511;27;20043;-72
2022/02/01 11:40:14;;;;;;;19.23;6.47;;;;;;;;;;5079785;28;20146;-78
2022/02/01 11:42:41;;;;;;;19.10;5.28;;;;;;;;;;5097842;27;20043;-73
2022/02/01 11:45:08;;;;;;;15.13;4.63;;;;;;;;;;5083255;27;20053;-73
2022/02/01 11:47:35;;;;;;;16.33;4.75;;;;;;;;;;5100538;27;20069;-75
2022/02/01 11:50:10;;;;;;;13.43;4.22;;;;;;;;;;5081346;27;20046;-77
2022/02/01 11:52:46;;;;;;;13.20;4.57;;;;;;;;;;5085013;27;20069;-75
2022/02/01 11:55:13;;;;;;;13.27;3.97;;;;;;;;;;5114703;27;20126;-74
2022/02/01 11:57:44;;;;;;;18.95;5.90;;;;;;;;;;5104758;27;20047;-77
2022/02/01 12:00:16;;;;;;;19.15;4.60;;;;;;;;;;5105373;27;20101;-73
2022/02/01 12:03:00;;;;;;;19.02;4.57;;;;;;;;;;5107878;27;20043;-74
2022/02/01 12:05:34;;;;;;;13.93;4.18;;;;;;;;;;5108690;27;20058;-75
2022/02/01 12:08:08;;;;;;;22.33;4.28;;;;;;;;;;5101673;27;20044;-73
2022/02/01 12:10:46;;;;;;;29.60;5.03;;;;;;;;;;5105359;27;20062;-72
2022/02/01 12:13:13;;;;;;;22.27;4.53;;;;;;;;;;5084915;27;20048;-76
2022/02/01 12:15:40;;;;;;;29.55;4.88;;;;;;;;;;5084299;27;20055;-74
2022/02/01 12:18:42;;;;;;;29.38;4.70;;;;;;;;;;5098532;28;20043;-74
2022/02/01 12:21:29;;;;;;;34.53;5.43;;;;;;;;;;5025616;28;20048;-73
2022/02/01 12:23:59;;;;;;;32.13;5.35;;;;;;;;;;5095675;27;20055;-72
2022/02/01 12:26:29;;;;;;;31.73;4.78;;;;;;;;;;5085400;27;20043;-72
2022/02/01 12:29:00;;;;;;;24.17;4.60;;;;;;;;;;5099423;27;20043;-72
2022/02/01 12:31:27;;;;;;;33.50;4.65;;;;;;;;;;5101239;27;20153;-73
2022/02/01 12:33:55;;;;;;;28.10;4.40;;;;;;;;;;5111330;27;20042;-74
2022/02/01 12:36:27;;;;;;;29.55;4.15;;;;;;;;;;5096072;27;20047;-72
2022/02/01 12:39:06;;;;;;;39.90;6.25;;;;;;;;;;5094708;27;20043;-74
2022/02/01 12:41:33;;;;;;;28.70;4.32;;;;;;;;;;5082951;27;20051;-75
2022/02/01 12:46:42;;;;;;;20.98;3.97;;;;;;;;;;5099804;28;20100;-75
2022/02/01 12:49:08;;;;;;;33.95;4.03;;;;;;;;;;5105950;28;20041;-75
2022/02/01 12:51:43;;;;;;;37.22;4.88;;;;;;;;;;5118739;28;20051;-75
2022/02/01 12:54:20;;;;;;;31.05;5.43;;;;;;;;;;5090987;27;20050;-71
2022/02/01 12:56:46;;;;;;;29.48;4.28;;;;;;;;;;5097491;28;20390;-70
2022/02/01 12:59:12;;;;;;;34.13;5.13;;;;;;;;;;5100596;28;20860;-70
2022/02/01 13:01:39;;;;;;;32.35;5.13;;;;;;;;;;5098941;28;20040;-73
2022/02/01 13:04:06;;;;;;;32.13;4.32;;;;;;;;;;5108919;28;20184;-71
2022/02/01 13:06:35;;;;;;;44.00;6.80;;;;;;;;;;5097471;28;20399;-70
2022/02/01 13:17:18;;;;;;;30.05;4.60;;;;;;;;;;5096310;28;20059;-70
2022/02/01 13:20:05;;;;;;;37.65;4.70;;;;;;;;;;5097979;28;20113;-68
2022/02/01 13:22:33;;;;;;;42.85;6.10;;;;;;;;;;5114522;28;20486;-70
2022/02/01 13:25:06;;;;;;;27.98;4.50;;;;;;;;;;5095729;28;20100;-68
2022/02/01 13:27:33;;;;;;;36.22;5.15;;;;;;;;;;5116746;28;20114;-68
2022/02/01 13:30:07;;;;;;;34.83;5.15;;;;;;;;;;5115382;28;20043;-68
2022/02/01 13:32:37;;;;;;;36.38;4.88;;;;;;;;;;5113158;28;20044;-68
2022/02/01 13:35:04;;;;;;;32.78;6.30;;;;;;;;;;5121451;27;21712;-71
2022/02/01 13:37:31;;;;;;;30.45;5.10;;;;;;;;;;5108639;27;20047;-68
2022/02/01 13:39:57;;;;;;;40.50;6.07;;;;;;;;;;5094786;27;20412;-68
2022/02/01 13:42:35;;;;;;;37.53;5.10;;;;;;;;;;5119993;27;20511;-69
2022/02/01 13:45:04;;;;;;;35.60;5.05;;;;;;;;;;5131352;27;20047;-69
2022/02/01 13:47:34;;;;;;;31.67;5.43;;;;;;;;;;5104770;27;20055;-68
2022/02/01 13:50:01;;;;;;;42.88;6.13;;;;;;;;;;5124908;27;20046;-69
2022/02/01 13:52:27;;;;;;;34.28;5.25;;;;;;;;;;5101005;28;20048;-69
2022/02/01 13:54:53;;;;;;;35.75;5.20;;;;;;;;;;5107718;27;20116;-68
2022/02/01 13:57:21;;;;;;;45.17;6.13;;;;;;;;;;5107252;27;20084;-68
2022/02/01 13:59:48;;;;;;;37.90;5.00;;;;;;;;;;5131235;27;20047;-69
2022/02/01 14:02:25;;;;;;;31.02;4.53;;;;;;;;;;5126417;27;20100;-68
2022/02/01 14:05:04;;;;;;;34.95;6.07;;;;;;;;;;5135215;27;20046;-69
2022/02/01 14:07:57;;;;;;;35.65;5.30;;;;;;;;;;5121852;27;20121;-69
2022/02/01 14:25:01;;;;;;;33.88;4.82;;;;;;;;;;5107940;27;20058;-72
2022/02/01 14:34:47;;;;;;;31.15;5.18;;;;;;;;;;5108332;27;20517;-70
2022/02/01 14:37:42;;;;;;;33.40;5.43;;;;;;;;;;5100803;27;20039;-69
2022/02/01 14:45:15;;;;;;;30.73;4.93;;;;;;;;;;5123998;27;20043;-69
2022/02/01 14:47:41;;;;;;;34.55;5.20;;;;;;;;;;5123605;27;20047;-69
2022/02/01 14:50:08;;;;;;;34.92;6.70;;;;;;;;;;5124196;27;20040;-69
2022/02/01 14:52:34;;;;;;;37.90;5.80;;;;;;;;;;5138562;27;20109;-69
2022/02/01 14:55:12;;;;;;;42.72;6.15;;;;;;;;;;5118016;27;20052;-71
2022/02/01 15:13:49;;;;;;;34.72;6.35;;;;;;;;;;5098223;27;20043;-67
2022/02/01 15:16:15;;;;;;;49.67;6.07;;;;;;;;;;5123436;27;20040;-68
2022/02/01 15:18:41;;;;;;;38.30;7.07;;;;;;;;;;5115652;27;20051;-70
2022/02/01 15:21:07;;;;;;;35.03;6.60;;;;;;;;;;5123706;27;20051;-68
2022/02/01 15:23:33;;;;;;;37.60;6.93;;;;;;;;;;5122725;27;20170;-69
2022/02/01 15:25:59;;;;;;;44.65;7.25;;;;;;;;;;5100785;27;20053;-69
2022/02/01 15:28:28;;;;;;;36.38;6.20;;;;;;;;;;5115916;27;20073;-68
2022/02/01 15:30:54;;;;;;;46.15;7.47;;;;;;;;;;5118953;27;20514;-69
2022/02/01 15:33:20;;;;;;;40.10;7.20;;;;;;;;;;5095416;27;20278;-68
2022/02/01 15:35:46;;;;;;;43.67;6.43;;;;;;;;;;5115798;27;20043;-69
2022/02/01 15:38:15;;;;;;;43.53;6.20;;;;;;;;;;5118818;27;20043;-69
2022/02/01 15:54:57;;;;;;;35.00;5.93;;;;;;;;;;5117914;27;20047;-68
2022/02/01 15:57:26;;;;;;;53.92;7.85;;;;;;;;;;5119479;27;20122;-71
2022/02/01 15:59:54;;;;;;;40.65;7.20;;;;;;;;;;5126737;27;20494;-70
2022/02/01 16:02:21;;;;;;;33.38;6.07;;;;;;;;;;5090193;27;20478;-70
2022/02/01 16:04:55;;;;;;;37.58;7.18;;;;;;;;;;5119938;27;20078;-69
2022/02/01 16:07:24;;;;;;;47.22;7.40;;;;;;;;;;5118314;27;20043;-69
2022/02/01 16:12:36;;;;;;;50.33;6.95;;;;;;;;;;5094538;28;20051;-69
2022/02/01 16:15:03;;;;;;;55.80;8.52;;;;;;;;;;5105782;27;20081;-70
2022/02/01 16:17:29;;;;;;;43.80;7.00;;;;;;;;;;5116178;27;20072;-71
2022/02/01 16:19:55;;;;;;;42.80;7.60;;;;;;;;;;5105323;27;20145;-71
2022/02/01 16:22:21;;;;;;;46.92;7.30;;;;;;;;;;5103248;27;20780;-71
2022/02/01 16:24:47;;;;;;;43.22;7.15;;;;;;;;;;5109448;27;20149;-70
2022/02/01 16:27:14;;;;;;;56.42;8.38;;;;;;;;;;5108046;28;20130;-70
2022/02/01 16:29:40;;;;;;;50.10;8.27;;;;;;;;;;5106896;27;20053;-69
2022/02/01 16:32:07;;;;;;;51.08;8.68;;;;;;;;;;5117599;27;20047;-70
2022/02/01 16:34:33;;;;;;;47.00;9.18;;;;;;;;;;5096288;27;20092;-74
2022/02/01 16:36:59;;;;;;;50.60;7.72;;;;;;;;;;5112598;27;20043;-69
2022/02/01 16:39:26;;;;;;;49.47;9.02;;;;;;;;;;5116564;27;20054;-69
2022/02/01 16:41:57;;;;;;;54.75;8.00;;;;;;;;;;5120242;27;20043;-70
2022/02/01 16:44:24;;;;;;;42.55;7.95;;;;;;;;;;5117834;27;20047;-73
2022/02/01 16:46:50;;;;;;;47.40;7.80;;;;;;;;;;5093979;28;20104;-73
2022/02/01 16:49:16;;;;;;;50.50;10.05;;;;;;;;;;5098224;28;20066;-71
2022/02/01 16:51:43;;;;;;;53.67;8.43;;;;;;;;;;5130819;27;20386;-71
2022/02/01 16:54:14;;;;;;;45.75;7.38;;;;;;;;;;5116405;28;20042;-70
2022/02/01 16:56:56;;;;;;;40.45;8.15;;;;;;;;;;5113893;27;20062;-73
2022/02/01 16:59:27;;;;;;;52.20;8.90;;;;;;;;;;5095930;28;20134;-72
2022/02/01 17:01:54;;;;;;;50.40;8.38;;;;;;;;;;5083470;28;20138;-72
2022/02/01 17:04:20;;;;;;;52.70;9.98;;;;;;;;;;5113333;28;20051;-71
2022/02/01 17:06:47;;;;;;;54.65;8.48;;;;;;;;;;5097940;28;20050;-72
2022/02/01 17:09:15;;;;;;;56.08;8.90;;;;;;;;;;5109125;27;20125;-75
2022/02/01 17:12:05;;;;;;;61.35;10.00;;;;;;;;;;5101631;27;20051;-70
2022/02/01 17:14:55;;;;;;;61.90;10.45;;;;;;;;;;5094206;27;20051;-72